Aérodrome :
LOGIN :

S'inscrire | Disclaimer

   EN    FR    IT 

 










Légende :    VFR   VFR Marginal   IFR   IFR Intensif   IFR Très Intensif
Visi : 
Plafond : 
>= 8 km
>= 3000ft
5 à 8 km
1000 à 3000 ft
1500m à 5 km
500 à 1000 ft
800 à 1500m
200 à 500 ft
< 800m
< 200 ft
Symboles :   Orages  Brouillard  Fortes neiges  Fortes précipitations  Vent > 20 kt
SIGMETs :   Divers  Orages  Givrage  Turbulence  Onde Orograph.  Cendres Volcan.






- Altitude de l'aérodrome : 433 ft
- Code IATA : CCF


LFMK - Carcassonne

DERNIER METAR :
  • 071400Z AUTO 28011KT CAVOK 14/07 Q1022 TEMPO BKN010

METARs EXPIRÉS :
  • 071330Z AUTO 28011KT CAVOK 14/07 Q1022 TEMPO BKN010
  • 071300Z AUTO 28009KT CAVOK 13/08 Q1023 TEMPO BKN010
  • 071230Z AUTO 27010KT CAVOK 13/09 Q1023 TEMPO BKN010
  • 071200Z AUTO 28013KT CAVOK 13/09 Q1023 TEMPO BKN010
  • 071130Z AUTO 27010KT 230V290 9999 FEW078 12/09 Q1024 TEMPO BKN010

TAF TAF LFMK
Valide du 07 à 09h jusqu'au 08 à 09h UTC


070800Z 0709/0809 27010KT 9999 BKN020
TEMPO 0709/0806 BKN010



MET'MAP, la Météo Aéronautique d'un coup d'oeil ! - Copyright ORBIFLY Décembre 2007 - Disclaimer

ORBIFLY MET'MAP TEAM :

Programmation & Développement : Alexandra Zaïnal
Sur une idée originale de : Baudouin d'Aumeries
Assistance à la programmation : Marc-Olivier Méhu
Soutien technique & logistique : Manuel Goepfert

Contact : metmap@orbifly.com




SOURCES & CREDITS :

   NOAA